6VG4 weather

Stonesprings Heliport
Arcola, Virginia, United States

Public forecast

Using degrees Fahrenheit for public forecast. Weather courtesy of forecast.io.

Closest aviation weather report (METAR) to Stonesprings Heliport

Closest report is Washington Dulles International Airport, 4.0 nm (7.4 km) E. Retrieved 2020/07/07 01:52 UTC (25 minutes ago):

KIAD 070152Z 08007KT 10SM FEW050 FEW100 BKN160 BKN250 25/20 A3002 RMK AO2 LTG DSNT NE-SE SLP163 CONS LTGIC DSNT NE-SE CB DSNT NE-SE MOV E T02500200

Closest aviation forecast (TAF) to Stonesprings Heliport

Closest forecast is Washington Dulles International Airport, 4.0 nm (7.4 km) E. Retrieved 2020-07-07 00:42 UTC (2 hours ago):

TAF KIAD 062341Z 0700/0806 24007KT P6SM SCT050 BKN120 FM070400 VRB03KT P6SM SCT100 BKN250 FM071000 VRB03KT P6SM BKN015 FM071400 17004KT P6SM FEW100 SCT250 FM071800 18009KT P6SM SCT050